sensor_id;sensor_type;location;lat;lon;timestamp;P1;durP1;ratioP1;P2;durP2;ratioP2
38318;SDS011;24121;53.536;10.224;2023-02-11T00:01:07;39.93;;;24.67;;
38318;SDS011;24121;53.536;10.224;2023-02-11T00:03:32;43.28;;;23.15;;
38318;SDS011;24121;53.536;10.224;2023-02-11T00:05:58;42.50;;;25.30;;
38318;SDS011;24121;53.536;10.224;2023-02-11T00:08:23;44.83;;;25.67;;
38318;SDS011;24121;53.536;10.224;2023-02-11T10:11:30;31.15;;;18.60;;
38318;SDS011;24121;53.536;10.224;2023-02-11T10:14:03;36.80;;;19.50;;
38318;SDS011;24121;53.536;10.224;2023-02-11T10:19:11;37.53;;;18.98;;
38318;SDS011;24121;53.536;10.224;2023-02-11T10:24:22;33.05;;;18.70;;
38318;SDS011;24121;53.536;10.224;2023-02-11T10:26:47;35.00;;;17.75;;
38318;SDS011;24121;53.536;10.224;2023-02-11T10:29:17;32.97;;;17.03;;
38318;SDS011;24121;53.536;10.224;2023-02-11T10:31:45;35.25;;;17.17;;
38318;SDS011;24121;53.536;10.224;2023-02-11T10:34:12;34.35;;;16.90;;
38318;SDS011;24121;53.536;10.224;2023-02-11T10:36:41;37.30;;;19.08;;
38318;SDS011;24121;53.536;10.224;2023-02-11T10:39:14;31.45;;;16.15;;
38318;SDS011;24121;53.536;10.224;2023-02-11T10:41:42;33.13;;;17.45;;
38318;SDS011;24121;53.536;10.224;2023-02-11T10:44:10;35.22;;;17.25;;
38318;SDS011;24121;53.536;10.224;2023-02-11T10:46:40;32.90;;;18.10;;
38318;SDS011;24121;53.536;10.224;2023-02-11T10:49:05;29.83;;;17.10;;
38318;SDS011;24121;53.536;10.224;2023-02-11T10:51:31;37.03;;;17.80;;
38318;SDS011;24121;53.536;10.224;2023-02-11T10:56:27;31.73;;;16.58;;
38318;SDS011;24121;53.536;10.224;2023-02-11T10:59:14;30.83;;;16.65;;
38318;SDS011;24121;53.536;10.224;2023-02-11T11:01:39;33.10;;;14.25;;
38318;SDS011;24121;53.536;10.224;2023-02-11T11:04:05;35.05;;;17.92;;
38318;SDS011;24121;53.536;10.224;2023-02-11T11:06:31;30.02;;;16.15;;
38318;SDS011;24121;53.536;10.224;2023-02-11T11:08:56;30.50;;;14.32;;
38318;SDS011;24121;53.536;10.224;2023-02-11T11:11:22;36.08;;;15.00;;
38318;SDS011;24121;53.536;10.224;2023-02-11T11:16:17;25.42;;;11.82;;
38318;SDS011;24121;53.536;10.224;2023-02-11T11:18:43;27.25;;;13.20;;
38318;SDS011;24121;53.536;10.224;2023-02-11T11:21:13;29.77;;;13.88;;
38318;SDS011;24121;53.536;10.224;2023-02-11T11:23:39;23.10;;;13.73;;
38318;SDS011;24121;53.536;10.224;2023-02-11T11:26:13;27.05;;;13.75;;
38318;SDS011;24121;53.536;10.224;2023-02-11T11:28:40;26.05;;;12.88;;
38318;SDS011;24121;53.536;10.224;2023-02-11T11:31:13;26.38;;;11.73;;
38318;SDS011;24121;53.536;10.224;2023-02-11T11:33:40;20.83;;;10.35;;
38318;SDS011;24121;53.536;10.224;2023-02-11T11:36:09;17.23;;;8.50;;
38318;SDS011;24121;53.536;10.224;2023-02-11T11:38:36;21.73;;;8.90;;
38318;SDS011;24121;53.536;10.224;2023-02-11T11:43:52;20.75;;;8.82;;
38318;SDS011;24121;53.536;10.224;2023-02-11T11:46:21;17.60;;;8.70;;
38318;SDS011;24121;53.536;10.224;2023-02-11T11:48:47;12.70;;;8.05;;
38318;SDS011;24121;53.536;10.224;2023-02-11T11:51:13;22.88;;;9.45;;
38318;SDS011;24121;53.536;10.224;2023-02-11T11:53:40;16.03;;;9.13;;
38318;SDS011;24121;53.536;10.224;2023-02-11T11:56:18;14.68;;;8.25;;
38318;SDS011;24121;53.536;10.224;2023-02-11T11:58:43;15.40;;;8.68;;
38318;SDS011;24121;53.536;10.224;2023-02-11T12:01:28;15.77;;;9.05;;
38318;SDS011;24121;53.536;10.224;2023-02-11T12:09:23;16.85;;;9.57;;
38318;SDS011;24121;53.536;10.224;2023-02-11T12:25:21;20.63;;;11.23;;
38318;SDS011;24121;53.536;10.224;2023-02-11T12:27:51;21.77;;;11.25;;
38318;SDS011;24121;53.536;10.224;2023-02-11T12:35:57;17.98;;;9.70;;
38318;SDS011;24121;53.536;10.224;2023-02-11T12:43:37;17.08;;;7.68;;
38318;SDS011;24121;53.536;10.224;2023-02-11T12:48:35;15.77;;;7.23;;
38318;SDS011;24121;53.536;10.224;2023-02-11T12:55:58;18.20;;;7.20;;
38318;SDS011;24121;53.536;10.224;2023-02-11T12:58:25;15.93;;;6.15;;
38318;SDS011;24121;53.536;10.224;2023-02-11T13:00:54;14.15;;;5.05;;
38318;SDS011;24121;53.536;10.224;2023-02-11T13:03:27;9.00;;;4.20;;
38318;SDS011;24121;53.536;10.224;2023-02-11T13:05:56;10.70;;;4.00;;
38318;SDS011;24121;53.536;10.224;2023-02-11T13:08:32;10.15;;;4.03;;
38318;SDS011;24121;53.536;10.224;2023-02-11T13:11:20;9.10;;;4.07;;
38318;SDS011;24121;53.536;10.224;2023-02-11T13:18:43;7.47;;;2.97;;
38318;SDS011;24121;53.536;10.224;2023-02-11T13:26:51;10.60;;;3.90;;
38318;SDS011;24121;53.536;10.224;2023-02-11T13:31:38;11.82;;;3.97;;
38318;SDS011;24121;53.536;10.224;2023-02-11T13:34:07;11.63;;;4.20;;
38318;SDS011;24121;53.536;10.224;2023-02-11T13:36:44;12.43;;;4.07;;
38318;SDS011;24121;53.536;10.224;2023-02-11T13:39:18;13.65;;;4.28;;
38318;SDS011;24121;53.536;10.224;2023-02-11T13:41:44;9.00;;;3.72;;
38318;SDS011;24121;53.536;10.224;2023-02-11T13:44:17;10.10;;;3.10;;
38318;SDS011;24121;53.536;10.224;2023-02-11T13:46:56;10.05;;;3.47;;
38318;SDS011;24121;53.536;10.224;2023-02-11T13:49:23;11.20;;;3.38;;
38318;SDS011;24121;53.536;10.224;2023-02-11T13:51:49;11.30;;;4.00;;
38318;SDS011;24121;53.536;10.224;2023-02-11T13:54:22;14.30;;;3.75;;
38318;SDS011;24121;53.536;10.224;2023-02-11T13:57:14;12.32;;;4.43;;
38318;SDS011;24121;53.536;10.224;2023-02-11T14:02:19;12.97;;;4.57;;
38318;SDS011;24121;53.536;10.224;2023-02-11T14:10:50;13.88;;;4.03;;
38318;SDS011;24121;53.536;10.224;2023-02-11T14:13:23;14.32;;;4.70;;
38318;SDS011;24121;53.536;10.224;2023-02-11T14:16:33;22.40;;;6.13;;
38318;SDS011;24121;53.536;10.224;2023-02-11T14:26:28;23.27;;;5.70;;
38318;SDS011;24121;53.536;10.224;2023-02-11T14:29:02;17.00;;;5.00;;
38318;SDS011;24121;53.536;10.224;2023-02-11T14:31:35;13.25;;;4.57;;
38318;SDS011;24121;53.536;10.224;2023-02-11T14:34:23;15.60;;;4.47;;
38318;SDS011;24121;53.536;10.224;2023-02-11T14:39:20;15.02;;;4.78;;
38318;SDS011;24121;53.536;10.224;2023-02-11T14:41:50;15.80;;;5.35;;
38318;SDS011;24121;53.536;10.224;2023-02-11T14:44:20;14.13;;;4.60;;
38318;SDS011;24121;53.536;10.224;2023-02-11T14:46:46;16.67;;;4.20;;
38318;SDS011;24121;53.536;10.224;2023-02-11T14:49:17;15.20;;;5.05;;
38318;SDS011;24121;53.536;10.224;2023-02-11T14:51:45;16.20;;;4.53;;
38318;SDS011;24121;53.536;10.224;2023-02-11T14:56:39;13.57;;;4.13;;
38318;SDS011;24121;53.536;10.224;2023-02-11T14:59:17;16.30;;;4.70;;
38318;SDS011;24121;53.536;10.224;2023-02-11T15:01:44;16.67;;;4.45;;
38318;SDS011;24121;53.536;10.224;2023-02-11T15:04:23;15.77;;;4.18;;
38318;SDS011;24121;53.536;10.224;2023-02-11T15:06:49;13.82;;;3.85;;
38318;SDS011;24121;53.536;10.224;2023-02-11T15:09:15;14.27;;;3.33;;
38318;SDS011;24121;53.536;10.224;2023-02-11T15:11:42;13.20;;;4.45;;
38318;SDS011;24121;53.536;10.224;2023-02-11T15:14:09;12.23;;;3.92;;
38318;SDS011;24121;53.536;10.224;2023-02-11T15:16:39;16.50;;;4.70;;
38318;SDS011;24121;53.536;10.224;2023-02-11T15:19:05;12.40;;;4.18;;
38318;SDS011;24121;53.536;10.224;2023-02-11T15:21:31;10.90;;;4.07;;
38318;SDS011;24121;53.536;10.224;2023-02-11T15:23:59;11.50;;;3.78;;
38318;SDS011;24121;53.536;10.224;2023-02-11T15:26:24;13.98;;;4.03;;
38318;SDS011;24121;53.536;10.224;2023-02-11T15:28:49;13.68;;;3.50;;
38318;SDS011;24121;53.536;10.224;2023-02-11T15:31:21;10.60;;;3.53;;
38318;SDS011;24121;53.536;10.224;2023-02-11T15:33:47;9.90;;;3.63;;
38318;SDS011;24121;53.536;10.224;2023-02-11T15:36:13;13.60;;;3.85;;
38318;SDS011;24121;53.536;10.224;2023-02-11T15:38:38;13.05;;;3.70;;
38318;SDS011;24121;53.536;10.224;2023-02-11T15:41:05;11.57;;;3.60;;
38318;SDS011;24121;53.536;10.224;2023-02-11T15:43:41;11.27;;;3.90;;
38318;SDS011;24121;53.536;10.224;2023-02-11T15:46:07;9.73;;;4.32;;
38318;SDS011;24121;53.536;10.224;2023-02-11T15:48:37;8.68;;;3.65;;
38318;SDS011;24121;53.536;10.224;2023-02-11T15:51:08;9.60;;;4.00;;
38318;SDS011;24121;53.536;10.224;2023-02-11T15:53:36;13.05;;;4.40;;
38318;SDS011;24121;53.536;10.224;2023-02-11T15:58:38;11.88;;;4.80;;
38318;SDS011;24121;53.536;10.224;2023-02-11T16:01:04;12.55;;;4.20;;
38318;SDS011;24121;53.536;10.224;2023-02-11T16:03:30;15.52;;;4.72;;
38318;SDS011;24121;53.536;10.224;2023-02-11T16:06:13;17.30;;;5.28;;
38318;SDS011;24121;53.536;10.224;2023-02-11T16:08:39;19.88;;;5.93;;
38318;SDS011;24121;53.536;10.224;2023-02-11T16:11:17;20.60;;;6.75;;
38318;SDS011;24121;53.536;10.224;2023-02-11T16:13:46;21.70;;;6.40;;
38318;SDS011;24121;53.536;10.224;2023-02-11T16:16:22;27.35;;;7.15;;
38318;SDS011;24121;53.536;10.224;2023-02-11T16:18:52;20.48;;;7.28;;
38318;SDS011;24121;53.536;10.224;2023-02-11T16:21:27;22.85;;;6.35;;
38318;SDS011;24121;53.536;10.224;2023-02-11T16:23:55;15.73;;;6.38;;
38318;SDS011;24121;53.536;10.224;2023-02-11T16:26:29;25.95;;;6.03;;
38318;SDS011;24121;53.536;10.224;2023-02-11T16:29:12;23.27;;;6.55;;
38318;SDS011;24121;53.536;10.224;2023-02-11T16:31:39;19.58;;;6.28;;
38318;SDS011;24121;53.536;10.224;2023-02-11T16:34:15;19.63;;;5.93;;
38318;SDS011;24121;53.536;10.224;2023-02-11T16:36:40;22.65;;;6.30;;
38318;SDS011;24121;53.536;10.224;2023-02-11T16:39:05;23.10;;;6.60;;
38318;SDS011;24121;53.536;10.224;2023-02-11T16:41:30;23.07;;;6.53;;
38318;SDS011;24121;53.536;10.224;2023-02-11T16:43:56;17.30;;;6.40;;
38318;SDS011;24121;53.536;10.224;2023-02-11T16:46:22;24.13;;;5.85;;
38318;SDS011;24121;53.536;10.224;2023-02-11T16:48:47;20.87;;;6.27;;
38318;SDS011;24121;53.536;10.224;2023-02-11T16:51:12;20.80;;;7.23;;
38318;SDS011;24121;53.536;10.224;2023-02-11T16:53:37;24.57;;;7.40;;
38318;SDS011;24121;53.536;10.224;2023-02-11T16:56:03;18.23;;;6.20;;
38318;SDS011;24121;53.536;10.224;2023-02-11T16:58:28;13.38;;;5.63;;
38318;SDS011;24121;53.536;10.224;2023-02-11T17:00:53;18.30;;;6.88;;
38318;SDS011;24121;53.536;10.224;2023-02-11T17:03:21;22.30;;;7.55;;
38318;SDS011;24121;53.536;10.224;2023-02-11T17:05:47;20.63;;;7.10;;
38318;SDS011;24121;53.536;10.224;2023-02-11T17:08:12;21.48;;;7.35;;
38318;SDS011;24121;53.536;10.224;2023-02-11T17:10:37;19.45;;;7.63;;
38318;SDS011;24121;53.536;10.224;2023-02-11T17:13:03;20.67;;;7.53;;
38318;SDS011;24121;53.536;10.224;2023-02-11T17:15:31;21.23;;;7.32;;
38318;SDS011;24121;53.536;10.224;2023-02-11T17:17:57;21.30;;;7.43;;
38318;SDS011;24121;53.536;10.224;2023-02-11T17:20:22;22.90;;;9.00;;
38318;SDS011;24121;53.536;10.224;2023-02-11T17:22:47;25.38;;;8.93;;
38318;SDS011;24121;53.536;10.224;2023-02-11T17:25:12;18.17;;;7.60;;
38318;SDS011;24121;53.536;10.224;2023-02-11T17:27:37;23.87;;;8.20;;
38318;SDS011;24121;53.536;10.224;2023-02-11T17:30:03;25.85;;;9.38;;
38318;SDS011;24121;53.536;10.224;2023-02-11T17:32:28;24.73;;;9.63;;
38318;SDS011;24121;53.536;10.224;2023-02-11T17:34:54;19.20;;;8.80;;
38318;SDS011;24121;53.536;10.224;2023-02-11T17:37:19;22.73;;;9.47;;
38318;SDS011;24121;53.536;10.224;2023-02-11T17:39:44;25.97;;;10.07;;
38318;SDS011;24121;53.536;10.224;2023-02-11T17:42:09;22.40;;;10.43;;
38318;SDS011;24121;53.536;10.224;2023-02-11T17:44:35;28.65;;;10.18;;
38318;SDS011;24121;53.536;10.224;2023-02-11T17:47:01;23.70;;;9.95;;
38318;SDS011;24121;53.536;10.224;2023-02-11T17:49:26;27.80;;;10.40;;
38318;SDS011;24121;53.536;10.224;2023-02-11T17:51:51;30.17;;;11.23;;
38318;SDS011;24121;53.536;10.224;2023-02-11T17:54:17;23.27;;;8.50;;
38318;SDS011;24121;53.536;10.224;2023-02-11T17:56:42;25.92;;;10.27;;
38318;SDS011;24121;53.536;10.224;2023-02-11T17:59:08;26.23;;;10.00;;
38318;SDS011;24121;53.536;10.224;2023-02-11T18:01:34;26.67;;;10.05;;
38318;SDS011;24121;53.536;10.224;2023-02-11T18:03:59;28.10;;;9.90;;
38318;SDS011;24121;53.536;10.224;2023-02-11T18:06:25;30.75;;;11.40;;
38318;SDS011;24121;53.536;10.224;2023-02-11T18:08:50;26.80;;;11.70;;
38318;SDS011;24121;53.536;10.224;2023-02-11T18:11:16;29.05;;;11.35;;
38318;SDS011;24121;53.536;10.224;2023-02-11T18:13:42;29.77;;;12.25;;
38318;SDS011;24121;53.536;10.224;2023-02-11T18:16:07;31.13;;;12.25;;
38318;SDS011;24121;53.536;10.224;2023-02-11T18:18:32;26.55;;;11.02;;
38318;SDS011;24121;53.536;10.224;2023-02-11T18:20:58;31.63;;;11.98;;
38318;SDS011;24121;53.536;10.224;2023-02-11T18:23:23;26.60;;;11.80;;
38318;SDS011;24121;53.536;10.224;2023-02-11T18:25:49;25.00;;;11.05;;
38318;SDS011;24121;53.536;10.224;2023-02-11T18:28:14;27.73;;;12.87;;
38318;SDS011;24121;53.536;10.224;2023-02-11T18:30:39;31.65;;;12.35;;
38318;SDS011;24121;53.536;10.224;2023-02-11T18:33:04;25.10;;;11.88;;
38318;SDS011;24121;53.536;10.224;2023-02-11T18:35:35;26.88;;;11.82;;
38318;SDS011;24121;53.536;10.224;2023-02-11T18:38:01;27.67;;;13.10;;
38318;SDS011;24121;53.536;10.224;2023-02-11T18:40:27;29.95;;;12.20;;
38318;SDS011;24121;53.536;10.224;2023-02-11T18:42:52;29.33;;;12.77;;
38318;SDS011;24121;53.536;10.224;2023-02-11T18:45:18;26.83;;;12.82;;
38318;SDS011;24121;53.536;10.224;2023-02-11T18:47:43;29.23;;;15.25;;
38318;SDS011;24121;53.536;10.224;2023-02-11T18:50:09;29.40;;;12.40;;
38318;SDS011;24121;53.536;10.224;2023-02-11T18:52:35;31.65;;;14.90;;
38318;SDS011;24121;53.536;10.224;2023-02-11T18:55:03;32.13;;;14.50;;
38318;SDS011;24121;53.536;10.224;2023-02-11T18:57:29;36.63;;;15.30;;
38318;SDS011;24121;53.536;10.224;2023-02-11T18:59:54;35.22;;;14.20;;
38318;SDS011;24121;53.536;10.224;2023-02-11T19:02:20;35.33;;;15.77;;
38318;SDS011;24121;53.536;10.224;2023-02-11T19:04:45;36.28;;;14.43;;
38318;SDS011;24121;53.536;10.224;2023-02-11T19:07:10;40.03;;;16.60;;
38318;SDS011;24121;53.536;10.224;2023-02-11T19:09:35;40.42;;;15.43;;
38318;SDS011;24121;53.536;10.224;2023-02-11T19:12:01;41.17;;;16.70;;
38318;SDS011;24121;53.536;10.224;2023-02-11T19:14:27;45.08;;;17.08;;
38318;SDS011;24121;53.536;10.224;2023-02-11T19:16:53;35.58;;;14.95;;
38318;SDS011;24121;53.536;10.224;2023-02-11T19:19:19;35.45;;;14.85;;
38318;SDS011;24121;53.536;10.224;2023-02-11T19:21:46;35.50;;;15.48;;
38318;SDS011;24121;53.536;10.224;2023-02-11T19:24:12;34.78;;;14.18;;
38318;SDS011;24121;53.536;10.224;2023-02-11T19:26:39;36.45;;;14.57;;
38318;SDS011;24121;53.536;10.224;2023-02-11T19:29:04;36.43;;;14.30;;
38318;SDS011;24121;53.536;10.224;2023-02-11T19:31:29;31.42;;;13.00;;
38318;SDS011;24121;53.536;10.224;2023-02-11T19:33:56;31.27;;;12.90;;
38318;SDS011;24121;53.536;10.224;2023-02-11T19:36:21;30.65;;;12.85;;
38318;SDS011;24121;53.536;10.224;2023-02-11T19:38:46;32.97;;;11.10;;
38318;SDS011;24121;53.536;10.224;2023-02-11T19:41:12;24.97;;;11.70;;
38318;SDS011;24121;53.536;10.224;2023-02-11T19:43:39;27.45;;;11.90;;
38318;SDS011;24121;53.536;10.224;2023-02-11T19:46:05;23.75;;;9.63;;
38318;SDS011;24121;53.536;10.224;2023-02-11T19:48:30;32.20;;;11.13;;
38318;SDS011;24121;53.536;10.224;2023-02-11T19:50:55;20.67;;;9.93;;
38318;SDS011;24121;53.536;10.224;2023-02-11T19:53:20;25.52;;;11.10;;
38318;SDS011;24121;53.536;10.224;2023-02-11T19:55:46;31.70;;;11.60;;
38318;SDS011;24121;53.536;10.224;2023-02-11T19:58:11;23.23;;;11.10;;
38318;SDS011;24121;53.536;10.224;2023-02-11T20:00:37;24.25;;;10.90;;
38318;SDS011;24121;53.536;10.224;2023-02-11T20:03:02;23.95;;;10.13;;
38318;SDS011;24121;53.536;10.224;2023-02-11T20:05:27;24.23;;;10.02;;
38318;SDS011;24121;53.536;10.224;2023-02-11T20:07:52;22.92;;;10.13;;
38318;SDS011;24121;53.536;10.224;2023-02-11T20:10:18;26.10;;;11.05;;
38318;SDS011;24121;53.536;10.224;2023-02-11T20:12:43;30.65;;;11.35;;
38318;SDS011;24121;53.536;10.224;2023-02-11T20:15:08;30.50;;;11.70;;
38318;SDS011;24121;53.536;10.224;2023-02-11T20:17:33;27.48;;;11.18;;
38318;SDS011;24121;53.536;10.224;2023-02-11T20:19:59;30.87;;;12.93;;
38318;SDS011;24121;53.536;10.224;2023-02-11T20:22:24;24.13;;;11.03;;
38318;SDS011;24121;53.536;10.224;2023-02-11T20:24:49;29.90;;;12.38;;
38318;SDS011;24121;53.536;10.224;2023-02-11T20:27:14;30.20;;;12.63;;
38318;SDS011;24121;53.536;10.224;2023-02-11T20:29:39;32.07;;;11.60;;
38318;SDS011;24121;53.536;10.224;2023-02-11T20:32:05;27.37;;;12.03;;
38318;SDS011;24121;53.536;10.224;2023-02-11T20:34:30;31.77;;;11.55;;
38318;SDS011;24121;53.536;10.224;2023-02-11T20:36:56;31.17;;;12.10;;
38318;SDS011;24121;53.536;10.224;2023-02-11T20:39:21;28.27;;;11.30;;
38318;SDS011;24121;53.536;10.224;2023-02-11T20:41:47;27.88;;;12.15;;
38318;SDS011;24121;53.536;10.224;2023-02-11T20:44:12;25.13;;;11.60;;
38318;SDS011;24121;53.536;10.224;2023-02-11T20:46:40;32.63;;;12.63;;
38318;SDS011;24121;53.536;10.224;2023-02-11T20:49:05;30.63;;;13.15;;
38318;SDS011;24121;53.536;10.224;2023-02-11T20:51:31;25.98;;;11.68;;
38318;SDS011;24121;53.536;10.224;2023-02-11T20:53:57;22.42;;;10.43;;
38318;SDS011;24121;53.536;10.224;2023-02-11T20:56:24;32.33;;;12.40;;
38318;SDS011;24121;53.536;10.224;2023-02-11T20:58:49;29.20;;;13.50;;
38318;SDS011;24121;53.536;10.224;2023-02-11T21:01:22;32.67;;;12.43;;
38318;SDS011;24121;53.536;10.224;2023-02-11T21:03:49;26.25;;;12.45;;
38318;SDS011;24121;53.536;10.224;2023-02-11T21:06:14;35.47;;;14.07;;
38318;SDS011;24121;53.536;10.224;2023-02-11T21:08:40;29.33;;;12.68;;
38318;SDS011;24121;53.536;10.224;2023-02-11T21:11:05;25.20;;;11.40;;
38318;SDS011;24121;53.536;10.224;2023-02-11T21:13:34;33.85;;;12.77;;
38318;SDS011;24121;53.536;10.224;2023-02-11T21:15:59;26.02;;;11.63;;
38318;SDS011;24121;53.536;10.224;2023-02-11T21:18:25;22.50;;;10.47;;
38318;SDS011;24121;53.536;10.224;2023-02-11T21:20:50;31.97;;;12.70;;
38318;SDS011;24121;53.536;10.224;2023-02-11T21:23:15;27.03;;;12.00;;
38318;SDS011;24121;53.536;10.224;2023-02-11T21:25:40;34.85;;;12.32;;
38318;SDS011;24121;53.536;10.224;2023-02-11T21:28:05;28.67;;;12.73;;
38318;SDS011;24121;53.536;10.224;2023-02-11T21:30:30;33.00;;;13.48;;
38318;SDS011;24121;53.536;10.224;2023-02-11T21:32:59;33.60;;;12.50;;
38318;SDS011;24121;53.536;10.224;2023-02-11T21:35:24;31.50;;;13.55;;
38318;SDS011;24121;53.536;10.224;2023-02-11T21:37:49;31.08;;;13.52;;
38318;SDS011;24121;53.536;10.224;2023-02-11T21:40:15;29.27;;;12.85;;
38318;SDS011;24121;53.536;10.224;2023-02-11T21:42:40;31.17;;;13.32;;
38318;SDS011;24121;53.536;10.224;2023-02-11T21:45:05;34.97;;;13.75;;
38318;SDS011;24121;53.536;10.224;2023-02-11T21:47:30;37.13;;;14.45;;
38318;SDS011;24121;53.536;10.224;2023-02-11T21:49:56;35.20;;;14.80;;
38318;SDS011;24121;53.536;10.224;2023-02-11T21:52:21;32.10;;;13.93;;
38318;SDS011;24121;53.536;10.224;2023-02-11T21:54:48;37.67;;;14.50;;
38318;SDS011;24121;53.536;10.224;2023-02-11T21:57:13;41.50;;;15.10;;
38318;SDS011;24121;53.536;10.224;2023-02-11T21:59:38;35.53;;;14.63;;
38318;SDS011;24121;53.536;10.224;2023-02-11T22:02:03;40.43;;;15.23;;
38318;SDS011;24121;53.536;10.224;2023-02-11T22:04:28;36.50;;;14.95;;
38318;SDS011;24121;53.536;10.224;2023-02-11T22:06:54;34.67;;;15.98;;
38318;SDS011;24121;53.536;10.224;2023-02-11T22:09:19;44.00;;;15.50;;
38318;SDS011;24121;53.536;10.224;2023-02-11T22:11:45;33.58;;;15.55;;
38318;SDS011;24121;53.536;10.224;2023-02-11T22:14:10;37.53;;;15.70;;
38318;SDS011;24121;53.536;10.224;2023-02-11T22:16:35;32.70;;;14.60;;
38318;SDS011;24121;53.536;10.224;2023-02-11T22:19:00;36.17;;;16.15;;
38318;SDS011;24121;53.536;10.224;2023-02-11T22:21:26;39.97;;;14.75;;
38318;SDS011;24121;53.536;10.224;2023-02-11T22:23:52;37.65;;;15.32;;
38318;SDS011;24121;53.536;10.224;2023-02-11T22:26:18;36.30;;;15.57;;
38318;SDS011;24121;53.536;10.224;2023-02-11T22:28:44;39.28;;;16.35;;
38318;SDS011;24121;53.536;10.224;2023-02-11T22:31:10;35.78;;;13.88;;
38318;SDS011;24121;53.536;10.224;2023-02-11T22:33:36;32.20;;;14.75;;
38318;SDS011;24121;53.536;10.224;2023-02-11T22:36:02;40.78;;;15.90;;
38318;SDS011;24121;53.536;10.224;2023-02-11T22:38:28;44.65;;;16.23;;
38318;SDS011;24121;53.536;10.224;2023-02-11T22:40:55;31.17;;;15.35;;
38318;SDS011;24121;53.536;10.224;2023-02-11T22:43:20;33.13;;;15.15;;
38318;SDS011;24121;53.536;10.224;2023-02-11T22:45:45;41.80;;;15.40;;
38318;SDS011;24121;53.536;10.224;2023-02-11T22:48:10;33.20;;;15.57;;
38318;SDS011;24121;53.536;10.224;2023-02-11T22:50:35;39.63;;;15.27;;
38318;SDS011;24121;53.536;10.224;2023-02-11T22:53:00;37.10;;;15.55;;
38318;SDS011;24121;53.536;10.224;2023-02-11T22:55:26;31.63;;;13.83;;
38318;SDS011;24121;53.536;10.224;2023-02-11T22:57:51;30.95;;;14.00;;
38318;SDS011;24121;53.536;10.224;2023-02-11T23:00:16;33.15;;;14.48;;
38318;SDS011;24121;53.536;10.224;2023-02-11T23:02:41;26.42;;;11.32;;
38318;SDS011;24121;53.536;10.224;2023-02-11T23:05:07;29.40;;;13.20;;
38318;SDS011;24121;53.536;10.224;2023-02-11T23:07:32;32.30;;;14.40;;
38318;SDS011;24121;53.536;10.224;2023-02-11T23:09:57;30.30;;;12.88;;
38318;SDS011;24121;53.536;10.224;2023-02-11T23:12:22;31.93;;;12.60;;
38318;SDS011;24121;53.536;10.224;2023-02-11T23:14:49;29.50;;;12.57;;
38318;SDS011;24121;53.536;10.224;2023-02-11T23:17:14;31.52;;;11.23;;
38318;SDS011;24121;53.536;10.224;2023-02-11T23:19:39;30.40;;;11.90;;
38318;SDS011;24121;53.536;10.224;2023-02-11T23:22:04;31.70;;;12.65;;
38318;SDS011;24121;53.536;10.224;2023-02-11T23:24:30;32.00;;;11.33;;
38318;SDS011;24121;53.536;10.224;2023-02-11T23:26:55;30.52;;;12.45;;
38318;SDS011;24121;53.536;10.224;2023-02-11T23:29:20;29.25;;;11.23;;
38318;SDS011;24121;53.536;10.224;2023-02-11T23:31:46;29.10;;;12.07;;
38318;SDS011;24121;53.536;10.224;2023-02-11T23:34:11;35.97;;;13.05;;
38318;SDS011;24121;53.536;10.224;2023-02-11T23:36:40;28.13;;;12.07;;
38318;SDS011;24121;53.536;10.224;2023-02-11T23:39:06;31.73;;;12.83;;
38318;SDS011;24121;53.536;10.224;2023-02-11T23:41:31;41.45;;;16.80;;
38318;SDS011;24121;53.536;10.224;2023-02-11T23:43:56;26.77;;;12.03;;
38318;SDS011;24121;53.536;10.224;2023-02-11T23:46:22;34.25;;;12.55;;
38318;SDS011;24121;53.536;10.224;2023-02-11T23:48:48;26.70;;;11.23;;
38318;SDS011;24121;53.536;10.224;2023-02-11T23:51:13;30.38;;;12.82;;
38318;SDS011;24121;53.536;10.224;2023-02-11T23:53:39;22.27;;;10.38;;
38318;SDS011;24121;53.536;10.224;2023-02-11T23:56:05;30.70;;;12.82;;
38318;SDS011;24121;53.536;10.224;2023-02-11T23:58:30;23.45;;;10.38;;
